createdAt,value
2022-11-12T00:00:19.104Z,15.73
2022-11-12T00:05:21.679Z,15.82
2022-11-12T00:10:24.330Z,14.73
2022-11-12T00:15:28.440Z,13.35
2022-11-12T00:20:30.811Z,14.13
2022-11-12T00:25:33.229Z,15.27
2022-11-12T00:30:38.826Z,14.60
2022-11-12T00:35:41.177Z,14.40
2022-11-12T00:40:43.564Z,14.52
2022-11-12T00:45:47.233Z,15.32
2022-11-12T00:55:51.793Z,12.27
2022-11-12T01:00:55.522Z,15.07
2022-11-12T01:06:02.296Z,15.82
2022-11-12T01:11:08.677Z,18.45
2022-11-12T01:16:13.437Z,16.65
2022-11-12T01:21:15.784Z,16.48
2022-11-12T01:26:20.005Z,16.33
2022-11-12T01:31:24.545Z,16.38
2022-11-12T01:36:27.589Z,16.23
2022-11-12T01:41:31.081Z,15.32
2022-11-12T01:46:35.955Z,16.08
2022-11-12T01:51:39.575Z,17.52
2022-11-12T02:01:46.371Z,14.85
2022-11-12T02:06:49.452Z,15.60
2022-11-12T02:11:51.799Z,16.35
2022-11-12T02:16:55.476Z,15.45
2022-11-12T02:27:01.620Z,17.50
2022-11-12T02:32:03.960Z,16.42
2022-11-12T02:37:06.475Z,16.38
2022-11-12T02:42:10.154Z,16.25
2022-11-12T02:47:12.536Z,14.82
2022-11-12T02:52:14.895Z,16.60
2022-11-12T02:57:18.610Z,14.60
2022-11-12T03:02:20.985Z,15.77
2022-11-12T03:07:23.348Z,16.70
2022-11-12T03:12:27.087Z,17.10
2022-11-12T03:17:29.430Z,18.10
2022-11-12T03:22:31.818Z,17.38
2022-11-12T03:27:35.610Z,17.33
2022-11-12T03:32:37.942Z,16.23
2022-11-12T03:37:40.266Z,17.02
2022-11-12T03:42:47.720Z,16.25
2022-11-12T03:47:50.572Z,15.82
2022-11-12T03:52:53.665Z,15.50
2022-11-12T03:57:58.048Z,15.25
2022-11-12T04:03:00.581Z,14.63
2022-11-12T04:08:21.626Z,14.05
2022-11-12T04:13:31.020Z,13.30
2022-11-12T04:18:51.098Z,16.55
2022-11-12T04:23:53.441Z,14.30
2022-11-12T04:29:14.610Z,14.88
2022-11-12T04:34:31.884Z,16.23
2022-11-12T04:39:34.251Z,15.55
2022-11-12T04:44:55.663Z,15.93
2022-11-12T04:49:58.308Z,15.73
2022-11-12T04:55:00.940Z,13.60
2022-11-12T05:00:05.306Z,14.48
2022-11-12T05:05:08.063Z,18.05
2022-11-12T05:10:10.813Z,17.57
2022-11-12T05:15:14.464Z,14.70
2022-11-12T05:25:19.030Z,12.98
2022-11-12T05:30:22.730Z,14.60
2022-11-12T05:35:25.066Z,13.50
2022-11-12T05:40:27.406Z,14.88
2022-11-12T05:45:31.081Z,14.90
2022-11-12T05:55:53.978Z,14.85
2022-11-12T06:00:57.690Z,17.15
2022-11-12T06:06:00.189Z,15.80
2022-11-12T06:11:02.537Z,15.30
2022-11-12T06:16:06.497Z,14.45
2022-11-12T06:21:22.420Z,16.13
2022-11-12T06:26:25.453Z,15.10
2022-11-12T06:31:29.155Z,14.35
2022-11-12T06:41:33.753Z,14.63
2022-11-12T06:46:37.436Z,14.60
2022-11-12T06:51:40.132Z,16.20
2022-11-12T06:56:42.518Z,14.27
2022-11-12T07:01:46.351Z,17.75
2022-11-12T07:06:48.837Z,16.15
2022-11-12T07:11:51.215Z,16.13
2022-11-12T07:16:54.918Z,16.55
2022-11-12T07:21:57.259Z,14.75
2022-11-12T07:26:59.631Z,17.98
2022-11-12T07:32:03.312Z,16.98
2022-11-12T07:42:07.987Z,19.88
2022-11-12T07:47:11.942Z,24.23
2022-11-12T07:52:14.332Z,23.98
2022-11-12T07:57:16.664Z,14.40
2022-11-12T08:02:20.457Z,10.18
2022-11-12T08:07:22.838Z,7.40
2022-11-12T08:12:25.306Z,7.40
2022-11-12T08:17:29.320Z,7.03
2022-11-12T08:22:32.245Z,8.10
2022-11-12T08:27:34.882Z,8.13
2022-11-12T08:32:38.597Z,7.68
2022-11-12T08:37:40.961Z,7.45
2022-11-12T08:42:43.336Z,6.45
2022-11-12T08:47:47.086Z,6.60
2022-11-12T08:52:49.547Z,7.45
2022-11-12T08:57:51.905Z,5.77
2022-11-12T09:02:55.627Z,6.60
2022-11-12T09:07:58.776Z,6.05
2022-11-12T09:18:06.355Z,6.45
2022-11-12T09:23:09.948Z,6.43
2022-11-12T09:28:13.354Z,5.47
2022-11-12T09:33:17.707Z,6.00
2022-11-12T09:38:20.702Z,5.80
2022-11-12T09:48:30.327Z,5.55
2022-11-12T09:53:34.221Z,6.20
2022-11-12T09:58:37.276Z,5.43
2022-11-12T10:08:51.088Z,6.57
2022-11-12T10:13:59.075Z,6.82
2022-11-12T10:19:06.388Z,5.85
2022-11-12T10:24:11.053Z,5.95
2022-11-12T10:29:15.143Z,6.00
2022-11-12T10:34:18.593Z,6.05
2022-11-12T10:39:35.358Z,6.55
2022-11-12T10:44:37.900Z,5.82
2022-11-12T10:49:40.268Z,6.40
2022-11-12T10:54:44.007Z,5.05
2022-11-12T10:59:46.361Z,6.05
2022-11-12T11:04:48.757Z,5.95
2022-11-12T11:09:55.974Z,6.20
2022-11-12T11:15:08.427Z,6.20
2022-11-12T11:20:16.795Z,5.90
2022-11-12T11:25:27.175Z,5.90
2022-11-12T11:30:29.577Z,6.68
2022-11-12T11:35:38.403Z,6.15
2022-11-12T11:40:47.239Z,8.75
2022-11-12T11:46:04.054Z,7.55
2022-11-12T11:51:11.484Z,9.15
2022-11-12T11:56:19.481Z,8.75
2022-11-12T12:01:26.263Z,6.25
2022-11-12T12:06:29.616Z,5.43
2022-11-12T12:11:36.622Z,5.72
2022-11-12T12:16:44.606Z,6.22
2022-11-12T12:21:49.766Z,5.45
2022-11-12T12:26:55.897Z,5.35
2022-11-12T12:32:02.473Z,5.35
2022-11-12T12:37:06.017Z,6.03
2022-11-12T12:42:15.591Z,5.30
2022-11-12T12:47:19.571Z,5.45
2022-11-12T12:52:21.989Z,5.43
2022-11-12T12:57:32.832Z,4.70
2022-11-12T13:02:38.204Z,5.45
2022-11-12T13:07:42.865Z,5.70
2022-11-12T13:13:06.653Z,5.78
2022-11-12T13:18:15.862Z,5.85
2022-11-12T13:23:58.187Z,4.53
2022-11-12T13:29:18.361Z,5.22
2022-11-12T13:34:26.008Z,5.28
2022-11-12T13:39:29.286Z,6.43
2022-11-12T13:44:32.176Z,5.72
2022-11-12T13:54:38.863Z,6.38
2022-11-12T13:59:41.229Z,7.85
2022-11-12T14:04:44.614Z,7.13
2022-11-12T14:09:55.343Z,5.90
2022-11-12T14:15:09.215Z,5.05
2022-11-12T14:20:24.920Z,6.05
2022-11-12T14:25:29.297Z,6.72
2022-11-12T14:30:32.496Z,7.45
2022-11-12T14:40:39.647Z,7.95
2022-11-12T14:45:47.990Z,8.57
2022-11-12T14:50:52.189Z,10.05
2022-11-12T14:55:57.281Z,8.55
2022-11-12T15:00:59.930Z,8.07
2022-11-12T15:06:09.380Z,10.27
2022-11-12T15:11:25.744Z,9.68
2022-11-12T15:16:29.374Z,10.02
2022-11-12T15:21:31.812Z,9.43
2022-11-12T15:26:36.993Z,9.00
2022-11-12T15:31:44.129Z,10.65
2022-11-12T15:36:47.560Z,11.07
2022-11-12T15:41:57.141Z,11.45
2022-11-12T15:46:59.863Z,13.18
2022-11-12T15:52:02.215Z,11.47
2022-11-12T15:57:06.029Z,13.70
2022-11-12T16:02:10.719Z,12.05
2022-11-12T16:07:13.155Z,14.60
2022-11-12T16:12:16.843Z,13.10
2022-11-12T16:17:19.490Z,14.23
2022-11-12T16:22:21.859Z,15.63
2022-11-12T16:27:25.933Z,15.07
2022-11-12T16:32:28.308Z,16.92
2022-11-12T16:37:31.158Z,16.08
2022-11-12T16:42:34.908Z,16.17
2022-11-12T16:47:43.517Z,17.58
2022-11-12T16:52:45.905Z,18.73
2022-11-12T16:57:49.579Z,18.15
2022-11-12T17:02:53.586Z,17.40
2022-11-12T17:07:56.727Z,18.15
2022-11-12T17:13:00.543Z,15.40
2022-11-12T17:18:03.277Z,21.23
2022-11-12T17:23:05.671Z,21.43
2022-11-12T17:28:09.445Z,23.33
2022-11-12T17:33:11.828Z,21.17
2022-11-12T17:38:15.450Z,21.38
2022-11-12T17:43:20.211Z,20.17
2022-11-12T17:48:22.818Z,19.90
2022-11-12T17:53:25.483Z,20.53
2022-11-12T17:58:31.540Z,24.35
2022-11-12T18:03:35.182Z,33.72
2022-11-12T18:08:37.554Z,33.20
2022-11-12T18:13:41.773Z,31.58
2022-11-12T18:18:44.386Z,31.52
2022-11-12T18:23:46.787Z,29.27
2022-11-12T18:28:52.750Z,40.13
2022-11-12T18:33:55.706Z,35.47
2022-11-12T18:38:58.065Z,42.45
2022-11-12T18:44:02.016Z,37.25
2022-11-12T18:49:04.455Z,36.60
2022-11-12T18:54:06.993Z,36.88
2022-11-12T18:59:11.595Z,29.92
2022-11-12T19:04:13.978Z,35.33
2022-11-12T19:09:16.386Z,37.53
2022-11-12T19:14:20.110Z,37.55
2022-11-12T19:19:22.521Z,37.53
2022-11-12T19:24:24.870Z,35.15
2022-11-12T19:29:28.552Z,32.60
2022-11-12T19:34:30.926Z,31.17
2022-11-12T19:39:33.300Z,31.77
2022-11-12T19:44:37.027Z,28.55
2022-11-12T19:49:39.408Z,28.98
2022-11-12T19:54:41.776Z,24.45
2022-11-12T19:59:45.518Z,26.48
2022-11-12T20:04:47.909Z,26.30
2022-11-12T20:09:50.294Z,30.75
2022-11-12T20:14:54.042Z,29.15
2022-11-12T20:19:56.418Z,28.38
2022-11-12T20:24:58.815Z,33.38
2022-11-12T20:30:02.533Z,32.95
2022-11-12T20:35:10.436Z,34.38
2022-11-12T20:40:17.810Z,39.40
2022-11-12T20:45:21.553Z,49.75
2022-11-12T20:50:24.070Z,43.88
2022-11-12T20:55:26.604Z,36.70
2022-11-12T21:00:30.370Z,37.40
2022-11-12T21:05:33.040Z,40.45
2022-11-12T21:10:35.406Z,49.57
2022-11-12T21:15:39.105Z,50.42
2022-11-12T21:20:41.709Z,50.95
2022-11-12T21:25:44.129Z,41.17
2022-11-12T21:30:47.922Z,45.83
2022-11-12T21:35:52.441Z,56.17
2022-11-12T21:41:02.033Z,58.88
2022-11-12T21:46:07.573Z,48.78
2022-11-12T21:51:11.033Z,44.97
2022-11-12T21:56:14.418Z,46.10
2022-11-12T22:01:19.905Z,35.88
2022-11-12T22:06:23.231Z,35.28
2022-11-12T22:11:26.079Z,29.45
2022-11-12T22:16:30.219Z,29.60
2022-11-12T22:21:39.527Z,30.85
2022-11-12T22:26:42.379Z,29.02
2022-11-12T22:31:46.104Z,30.90
2022-11-12T22:36:48.648Z,34.67
2022-11-12T22:41:51.051Z,28.65
2022-11-12T22:46:54.729Z,31.40
2022-11-12T22:51:57.098Z,32.53
2022-11-12T22:56:59.464Z,38.30
2022-11-12T23:02:03.165Z,36.45
2022-11-12T23:07:05.581Z,31.42
2022-11-12T23:12:08.039Z,30.98
2022-11-12T23:17:11.769Z,30.60
2022-11-12T23:22:14.219Z,34.00
2022-11-12T23:27:16.625Z,28.80
2022-11-12T23:32:20.342Z,34.70
2022-11-12T23:37:22.735Z,32.13
2022-11-12T23:42:25.068Z,28.38
2022-11-12T23:47:28.738Z,30.23
2022-11-12T23:52:31.123Z,27.05
2022-11-12T23:57:33.905Z,28.70
